Time;durP1;ratioP1;P1;durP2;ratioP2;P2;SDS_P1;SDS_P2;PMS_P1;PMS_P2;Temp;Humidity;BMP_temperature;BMP_pressure;BME280_temperature;BME280_humidity;BME280_pressure;Samples;Min_cycle;Max_cycle;Signal;HPM_P1;HPM_P2
2023/02/03 00:00:27;;;;;;;23.58;8.60;;;8.20;99.90;;;;;;4890641;29;20079;-73
2023/02/03 00:02:54;;;;;;;23.67;7.30;;;8.20;99.90;;;;;;4891917;29;20483;-73
2023/02/03 00:05:20;;;;;;;19.75;7.00;;;8.20;99.90;;;;;;4911670;29;20042;-73
2023/02/03 00:07:47;;;;;;;20.33;6.63;;;8.20;99.90;;;;;;4881476;29;20673;-72
2023/02/03 00:10:13;;;;;;;18.65;5.88;;;8.20;99.90;;;;;;4893411;29;20040;-73
2023/02/03 00:12:40;;;;;;;20.63;6.40;;;8.20;99.90;;;;;;4915755;29;20036;-73
2023/02/03 00:15:07;;;;;;;17.65;6.22;;;8.20;99.90;;;;;;4904202;29;20477;-72
2023/02/03 00:17:33;;;;;;;15.50;5.15;;;8.30;99.90;;;;;;4883592;29;20395;-72
2023/02/03 00:19:59;;;;;;;22.27;5.85;;;8.20;99.90;;;;;;4916201;29;20044;-72
2023/02/03 00:22:25;;;;;;;28.88;5.97;;;8.30;99.90;;;;;;4894289;29;20036;-73
2023/02/03 00:24:52;;;;;;;21.20;5.78;;;8.30;99.90;;;;;;4907006;29;20563;-74
2023/02/03 00:27:18;;;;;;;18.88;5.00;;;8.30;99.90;;;;;;4914614;29;20040;-72
2023/02/03 00:29:44;;;;;;;19.00;5.45;;;8.30;99.90;;;;;;4882468;29;20390;-72
2023/02/03 00:32:11;;;;;;;17.27;5.25;;;8.30;99.90;;;;;;4894375;29;20047;-73
2023/02/03 00:34:37;;;;;;;20.88;6.60;;;8.30;99.90;;;;;;4891354;29;20396;-72
2023/02/03 00:37:03;;;;;;;26.23;6.53;;;8.30;99.90;;;;;;4862049;29;20044;-74
2023/02/03 00:39:30;;;;;;;23.85;6.97;;;8.40;99.90;;;;;;4882919;29;20513;-72
2023/02/03 00:41:56;;;;;;;18.65;6.00;;;8.30;99.90;;;;;;4920114;29;20047;-73
2023/02/03 00:44:23;;;;;;;26.55;6.82;;;8.40;99.90;;;;;;4893258;29;20590;-72
2023/02/03 00:46:49;;;;;;;21.80;5.68;;;8.40;99.90;;;;;;4908233;29;20039;-73
2023/02/03 00:49:15;;;;;;;24.17;5.90;;;8.40;99.90;;;;;;4896531;29;21098;-72
2023/02/03 00:51:41;;;;;;;31.30;6.60;;;8.40;99.90;;;;;;4920167;29;20036;-74
2023/02/03 00:54:08;;;;;;;14.02;4.93;;;8.40;99.90;;;;;;4891777;29;20134;-71
2023/02/03 00:56:34;;;;;;;24.05;6.38;;;8.40;99.90;;;;;;4914420;29;20028;-72
2023/02/03 00:59:00;;;;;;;22.35;6.68;;;8.40;99.90;;;;;;4897809;29;20039;-73
2023/02/03 01:01:27;;;;;;;19.17;6.07;;;8.40;99.90;;;;;;4902846;29;20028;-72
2023/02/03 01:03:54;;;;;;;18.13;5.35;;;8.50;99.90;;;;;;4880060;29;20048;-73
2023/02/03 01:06:21;;;;;;;26.02;6.43;;;8.50;99.90;;;;;;4880675;29;20027;-72
2023/02/03 01:08:48;;;;;;;19.38;6.07;;;8.50;99.90;;;;;;4882903;29;20050;-72
2023/02/03 01:11:26;;;;;;;20.88;6.03;;;8.50;99.90;;;;;;4906062;29;20034;-72
2023/02/03 01:13:55;;;;;;;17.38;6.15;;;8.50;99.90;;;;;;4894682;29;20052;-73
2023/02/03 01:16:23;;;;;;;17.40;6.43;;;8.50;99.90;;;;;;4907466;29;20039;-72
2023/02/03 01:18:50;;;;;;;22.90;6.25;;;8.50;99.90;;;;;;4885283;29;20497;-73
2023/02/03 01:21:20;;;;;;;25.50;5.47;;;8.50;99.90;;;;;;4912910;29;20486;-73
2023/02/03 01:23:47;;;;;;;22.58;5.72;;;8.50;99.90;;;;;;4900163;29;20039;-72
2023/02/03 01:26:15;;;;;;;19.73;6.38;;;8.50;99.90;;;;;;4890690;29;20086;-73
2023/02/03 01:28:42;;;;;;;21.02;6.65;;;8.50;99.90;;;;;;4888352;29;20476;-72
2023/02/03 01:31:14;;;;;;;19.80;6.03;;;8.40;99.90;;;;;;4897835;29;20033;-72
2023/02/03 01:33:40;;;;;;;16.33;4.73;;;8.50;99.90;;;;;;4910908;29;20036;-72
2023/02/03 01:36:08;;;;;;;20.50;5.20;;;8.50;99.90;;;;;;4886096;29;20452;-72
2023/02/03 01:38:36;;;;;;;14.90;5.35;;;8.50;99.90;;;;;;4900932;29;20483;-72
2023/02/03 01:41:03;;;;;;;20.05;5.43;;;8.50;99.90;;;;;;4911849;29;20051;-72
2023/02/03 01:43:33;;;;;;;14.13;4.82;;;8.50;99.90;;;;;;4887356;29;20036;-72
2023/02/03 01:46:03;;;;;;;15.80;4.97;;;8.50;99.90;;;;;;4888706;29;20532;-72
2023/02/03 01:48:32;;;;;;;20.55;5.55;;;8.50;99.90;;;;;;4914198;29;20036;-73
2023/02/03 01:51:01;;;;;;;12.75;3.70;;;8.50;99.90;;;;;;4899961;29;20039;-73
2023/02/03 01:53:28;;;;;;;14.68;3.97;;;8.50;99.90;;;;;;4889660;29;20048;-73
2023/02/03 01:55:56;;;;;;;19.33;4.55;;;8.50;99.90;;;;;;4890992;29;20043;-72
2023/02/03 01:58:28;;;;;;;21.27;4.85;;;8.50;99.90;;;;;;4900259;29;20024;-72
2023/02/03 02:00:57;;;;;;;16.25;5.30;;;8.50;99.90;;;;;;4909058;29;20036;-72
2023/02/03 02:03:31;;;;;;;23.05;4.03;;;8.40;99.90;;;;;;4918685;29;20475;-72
2023/02/03 02:06:07;;;;;;;16.35;4.65;;;8.50;99.90;;;;;;4902567;29;20039;-72
2023/02/03 02:08:35;;;;;;;16.63;4.47;;;8.50;99.90;;;;;;4900028;29;20499;-72
2023/02/03 02:11:02;;;;;;;17.20;4.35;;;8.50;99.90;;;;;;4877856;29;20047;-71
2023/02/03 02:13:33;;;;;;;16.20;4.22;;;8.40;99.90;;;;;;4898405;29;20031;-72
2023/02/03 02:16:02;;;;;;;18.33;4.07;;;8.50;99.90;;;;;;4910205;29;20051;-72
2023/02/03 02:18:44;;;;;;;19.77;4.85;;;8.50;99.90;;;;;;4893323;29;20047;-72
2023/02/03 02:21:42;;;;;;;16.67;4.60;;;8.40;99.90;;;;;;4916840;29;20383;-72
2023/02/03 02:24:27;;;;;;;17.13;4.35;;;8.50;99.90;;;;;;4868056;29;20441;-73
2023/02/03 02:27:05;;;;;;;16.38;3.33;;;8.40;99.90;;;;;;4885474;29;20051;-72
2023/02/03 02:29:50;;;;;;;12.82;3.50;;;8.40;99.90;;;;;;4920568;29;20035;-72
2023/02/03 02:32:39;;;;;;;19.70;4.13;;;8.50;99.90;;;;;;4898481;29;20040;-72
2023/02/03 02:35:18;;;;;;;12.13;3.85;;;8.50;99.90;;;;;;4890159;29;20043;-72
2023/02/03 02:38:33;;;;;;;17.33;4.18;;;8.40;99.90;;;;;;4913826;29;20329;-72
2023/02/03 02:41:30;;;;;;;14.63;3.95;;;8.50;99.90;;;;;;4860796;29;20044;-73
2023/02/03 02:44:06;;;;;;;14.90;4.47;;;8.50;99.90;;;;;;4892046;29;20495;-73
2023/02/03 02:46:38;;;;;;;14.40;4.70;;;8.50;99.90;;;;;;4864130;29;20483;-73
2023/02/03 02:49:13;;;;;;;10.77;3.55;;;8.50;99.90;;;;;;4906881;29;20031;-72
2023/02/03 02:51:44;;;;;;;15.23;3.17;;;8.50;99.90;;;;;;4873642;29;20028;-72
2023/02/03 02:54:16;;;;;;;17.17;3.90;;;8.50;99.90;;;;;;4896383;29;20059;-72
2023/02/03 02:56:46;;;;;;;12.40;3.63;;;8.50;99.90;;;;;;4878387;29;20036;-74
2023/02/03 02:59:14;;;;;;;10.57;3.22;;;8.50;99.90;;;;;;4897512;29;20043;-72
2023/02/03 03:01:40;;;;;;;15.23;3.75;;;8.50;99.90;;;;;;4885226;29;20046;-72
2023/02/03 03:04:12;;;;;;;11.02;2.97;;;8.60;99.90;;;;;;4909321;29;20072;-72
2023/02/03 03:06:45;;;;;;;11.80;3.10;;;8.50;99.90;;;;;;4878752;29;20360;-73
2023/02/03 03:09:26;;;;;;;6.72;3.08;;;8.50;99.90;;;;;;4877983;29;20487;-73
2023/02/03 03:11:58;;;;;;;16.77;2.90;;;8.50;99.90;;;;;;4901272;29;20043;-73
2023/02/03 03:14:29;;;;;;;18.33;3.60;;;8.60;99.90;;;;;;4879296;29;20044;-73
2023/02/03 03:17:21;;;;;;;10.85;3.33;;;8.60;99.90;;;;;;4915702;29;20039;-73
2023/02/03 03:19:52;;;;;;;12.23;2.83;;;8.60;99.90;;;;;;4886002;29;20443;-72
2023/02/03 03:22:24;;;;;;;20.63;4.03;;;8.60;99.90;;;;;;4918514;29;20051;-73
2023/02/03 03:24:57;;;;;;;10.73;2.38;;;8.60;99.90;;;;;;4886142;29;20036;-74
2023/02/03 03:27:25;;;;;;;;;;;8.60;99.90;;;;;;4915007;29;20368;-72
2023/02/03 03:29:56;;;;;;;13.15;3.55;;;8.60;99.90;;;;;;4914437;29;19919;-72
2023/02/03 03:32:24;;;;;;;19.05;3.67;;;8.60;99.90;;;;;;4897221;29;20411;-72
2023/02/03 03:34:51;;;;;;;16.52;3.25;;;8.60;99.90;;;;;;4909615;29;20036;-73
2023/02/03 03:37:29;;;;;;;15.50;2.88;;;8.60;99.90;;;;;;4915282;29;20078;-72
2023/02/03 03:39:58;;;;;;;12.20;2.47;;;8.60;99.90;;;;;;4916789;29;20046;-74
2023/02/03 03:43:12;;;;;;;11.32;3.50;;;8.60;99.90;;;;;;4909981;29;20031;-74
2023/02/03 03:45:48;;;;;;;10.45;3.08;;;8.60;99.90;;;;;;4872955;29;20027;-73
2023/02/03 03:48:35;;;;;;;16.38;3.15;;;8.60;99.90;;;;;;4911285;29;20367;-72
2023/02/03 03:51:08;;;;;;;13.45;3.13;;;8.60;99.90;;;;;;4908936;29;20051;-72
2023/02/03 03:53:37;;;;;;;13.15;2.85;;;8.60;99.90;;;;;;4909275;29;20036;-74
2023/02/03 03:56:06;;;;;;;13.43;2.90;;;8.70;99.90;;;;;;4876727;29;20039;-73
2023/02/03 03:58:33;;;;;;;12.77;3.40;;;8.70;99.90;;;;;;4917297;29;20041;-72
2023/02/03 04:01:04;;;;;;;19.38;3.75;;;8.70;99.90;;;;;;4910779;29;20316;-73
2023/02/03 04:03:45;;;;;;;9.23;1.95;;;8.70;99.90;;;;;;4898401;29;20044;-73
2023/02/03 04:06:12;;;;;;;20.88;4.72;;;8.70;99.90;;;;;;4910218;29;20035;-73
2023/02/03 04:08:38;;;;;;;13.75;3.90;;;8.70;99.90;;;;;;4919622;29;20040;-73
2023/02/03 04:11:05;;;;;;;14.23;2.80;;;8.70;99.90;;;;;;4916523;29;20398;-72
2023/02/03 04:13:31;;;;;;;17.88;3.20;;;8.70;99.90;;;;;;4904241;29;20503;-73
2023/02/03 04:15:58;;;;;;;10.90;2.90;;;8.70;99.90;;;;;;4898080;29;20043;-72
2023/02/03 04:18:24;;;;;;;9.07;2.33;;;8.80;99.90;;;;;;4922195;29;20039;-73
2023/02/03 04:20:50;;;;;;;15.45;3.35;;;8.70;99.90;;;;;;4920516;29;20039;-73
2023/02/03 04:23:16;;;;;;;11.10;3.55;;;8.80;99.90;;;;;;4914332;29;20485;-75
2023/02/03 04:25:43;;;;;;;18.30;3.20;;;8.80;99.90;;;;;;4910461;29;20668;-73
2023/02/03 04:28:09;;;;;;;11.27;2.47;;;8.80;99.90;;;;;;4909423;29;21177;-73
2023/02/03 04:30:35;;;;;;;11.95;2.65;;;8.80;99.90;;;;;;4910063;29;20032;-73
2023/02/03 04:33:02;;;;;;;14.05;3.25;;;8.80;99.90;;;;;;4897892;29;20048;-73
2023/02/03 04:35:28;;;;;;;10.77;2.40;;;8.80;99.90;;;;;;4889744;29;20039;-73
2023/02/03 04:37:54;;;;;;;18.10;2.92;;;8.80;99.90;;;;;;4904147;29;20055;-73
2023/02/03 04:40:20;;;;;;;14.23;3.78;;;8.80;99.90;;;;;;4921953;29;20268;-74
2023/02/03 04:42:47;;;;;;;15.05;2.90;;;8.80;99.90;;;;;;4880176;29;20028;-73
2023/02/03 04:45:13;;;;;;;11.70;2.80;;;8.80;99.90;;;;;;4900220;29;20880;-73
2023/02/03 04:47:40;;;;;;;17.75;3.00;;;8.80;99.90;;;;;;4916509;29;20387;-75
2023/02/03 04:50:06;;;;;;;14.15;3.08;;;8.80;99.90;;;;;;4900943;29;20036;-75
2023/02/03 04:52:32;;;;;;;15.25;2.72;;;8.80;99.90;;;;;;4889577;29;20400;-75
2023/02/03 04:54:59;;;;;;;11.27;2.45;;;8.80;99.90;;;;;;4886375;29;20070;-73
2023/02/03 04:57:25;;;;;;;11.45;2.63;;;8.80;99.90;;;;;;4905594;29;20051;-73
2023/02/03 04:59:51;;;;;;;10.10;2.60;;;8.80;99.90;;;;;;4905280;29;20038;-72
2023/02/03 05:02:18;;;;;;;19.70;3.40;;;8.80;99.90;;;;;;4903150;29;20042;-74
2023/02/03 05:04:44;;;;;;;9.52;2.35;;;8.80;99.90;;;;;;4876650;29;20036;-72
2023/02/03 05:07:10;;;;;;;16.52;2.63;;;8.80;99.90;;;;;;4879263;29;20055;-74
2023/02/03 05:09:36;;;;;;;14.48;2.08;;;8.80;99.90;;;;;;4919763;29;20031;-72
2023/02/03 05:12:03;;;;;;;16.20;2.70;;;8.80;99.90;;;;;;4917616;29;20044;-72
2023/02/03 05:14:29;;;;;;;12.63;2.20;;;8.80;99.90;;;;;;4910756;29;20040;-74
2023/02/03 05:16:55;;;;;;;14.60;2.50;;;8.80;99.90;;;;;;4898936;29;20043;-73
2023/02/03 05:19:22;;;;;;;9.77;2.15;;;8.90;99.90;;;;;;4915989;29;20040;-72
2023/02/03 05:21:48;;;;;;;11.90;1.90;;;8.80;99.90;;;;;;4916805;29;20468;-73
2023/02/03 05:24:14;;;;;;;10.93;2.33;;;8.90;99.90;;;;;;4896681;29;20036;-73
2023/02/03 05:26:41;;;;;;;13.07;2.47;;;8.90;99.90;;;;;;4908065;29;20047;-73
2023/02/03 05:29:08;;;;;;;11.05;2.10;;;8.90;99.90;;;;;;4916454;29;20044;-72
2023/02/03 05:31:35;;;;;;;13.38;2.60;;;8.90;99.90;;;;;;4885479;29;20047;-73
2023/02/03 05:34:01;;;;;;;12.48;2.55;;;8.90;99.90;;;;;;4914651;29;20046;-73
2023/02/03 05:36:27;;;;;;;12.73;2.00;;;8.90;99.90;;;;;;4871571;29;20439;-73
2023/02/03 05:38:54;;;;;;;12.93;2.20;;;8.90;99.90;;;;;;4881030;29;20058;-73
2023/02/03 05:44:05;;;;;;;8.88;2.38;;;8.90;99.90;;;;;;4909540;29;20051;-74
2023/02/03 05:46:31;;;;;;;15.77;2.67;;;8.90;99.90;;;;;;4894908;29;20055;-72
2023/02/03 05:48:57;;;;;;;17.98;4.70;;;8.90;99.90;;;;;;4917572;29;20032;-74
2023/02/03 05:51:24;;;;;;;10.05;1.70;;;8.90;99.90;;;;;;4917299;29;20040;-73
2023/02/03 05:53:50;;;;;;;12.13;2.90;;;8.90;99.90;;;;;;4899476;29;20059;-73
2023/02/03 05:56:16;;;;;;;11.30;2.85;;;8.90;99.90;;;;;;4912557;29;20040;-74
2023/02/03 05:58:42;;;;;;;15.85;2.10;;;8.90;99.90;;;;;;4894509;29;20527;-73
2023/02/03 06:01:10;;;;;;;11.18;2.40;;;8.90;99.90;;;;;;4914158;29;20502;-73
2023/02/03 06:03:36;;;;;;;14.05;2.47;;;8.90;99.90;;;;;;4895975;29;20047;-73
2023/02/03 06:06:03;;;;;;;15.25;3.08;;;8.90;99.90;;;;;;4885853;29;20047;-73
2023/02/03 06:08:29;;;;;;;14.68;3.17;;;8.90;99.90;;;;;;4905072;29;20047;-73
2023/02/03 06:10:59;;;;;;;9.82;1.95;;;9.00;99.90;;;;;;4910116;29;20040;-73
2023/02/03 06:13:26;;;;;;;9.30;2.58;;;8.90;99.90;;;;;;4907597;29;20036;-73
2023/02/03 06:15:53;;;;;;;8.80;2.33;;;8.90;99.90;;;;;;4871741;29;20050;-74
2023/02/03 06:18:19;;;;;;;12.70;2.60;;;9.00;99.90;;;;;;4891913;29;20036;-74
2023/02/03 06:20:46;;;;;;;17.55;3.50;;;8.90;99.90;;;;;;4909551;29;20039;-72
2023/02/03 06:23:12;;;;;;;12.55;2.50;;;8.90;99.90;;;;;;4896015;29;20090;-72
2023/02/03 06:25:39;;;;;;;18.73;2.75;;;8.90;99.90;;;;;;4875375;29;20530;-73
2023/02/03 06:28:05;;;;;;;19.40;3.30;;;8.90;99.90;;;;;;4906123;29;20475;-73
2023/02/03 06:30:31;;;;;;;13.70;3.35;;;8.90;99.90;;;;;;4912695;29;20616;-73
2023/02/03 06:32:58;;;;;;;16.08;3.10;;;8.90;99.90;;;;;;4882095;29;20059;-74
2023/02/03 06:35:24;;;;;;;16.15;3.05;;;8.90;99.90;;;;;;4901701;29;20036;-73
2023/02/03 06:37:50;;;;;;;13.60;2.72;;;8.90;99.90;;;;;;4918625;29;20051;-74
2023/02/03 06:40:17;;;;;;;9.23;1.95;;;8.90;99.90;;;;;;4911129;29;20044;-74
2023/02/03 06:42:47;;;;;;;20.17;3.72;;;8.90;99.90;;;;;;4915751;29;20032;-74
2023/02/03 06:45:14;;;;;;;12.77;2.90;;;8.90;99.90;;;;;;4888496;29;20059;-74
2023/02/03 06:47:41;;;;;;;12.77;2.65;;;8.90;99.90;;;;;;4919826;29;20028;-73
2023/02/03 06:50:09;;;;;;;12.18;3.17;;;8.90;99.90;;;;;;4898467;29;20047;-74
2023/02/03 06:52:35;;;;;;;12.90;3.38;;;8.90;99.90;;;;;;4917630;29;20043;-74
2023/02/03 06:55:03;;;;;;;16.42;3.15;;;8.90;99.90;;;;;;4896279;29;20048;-73
2023/02/03 06:57:29;;;;;;;12.10;2.65;;;8.90;99.90;;;;;;4909947;29;20047;-75
2023/02/03 06:59:55;;;;;;;14.48;3.30;;;8.90;99.90;;;;;;4893213;29;20102;-73
2023/02/03 07:02:22;;;;;;;10.57;3.00;;;8.90;99.90;;;;;;4899793;29;20035;-74
2023/02/03 07:04:48;;;;;;;7.72;2.58;;;8.90;99.90;;;;;;4887546;29;20040;-74
2023/02/03 07:07:15;;;;;;;12.55;2.97;;;8.90;99.90;;;;;;4897187;29;20044;-73
2023/02/03 07:09:41;;;;;;;10.13;3.30;;;8.90;99.90;;;;;;4899039;29;20055;-74
2023/02/03 07:12:08;;;;;;;10.90;2.75;;;8.90;99.90;;;;;;4917642;29;20066;-73
2023/02/03 07:14:35;;;;;;;20.95;3.13;;;8.90;99.90;;;;;;4905737;29;20130;-74
2023/02/03 07:17:02;;;;;;;12.00;3.28;;;8.90;99.90;;;;;;4911091;29;20044;-73
2023/02/03 07:19:28;;;;;;;12.63;3.53;;;8.90;99.90;;;;;;4904560;29;20040;-73
2023/02/03 07:21:54;;;;;;;15.90;2.67;;;8.90;99.90;;;;;;4884914;29;20507;-73
2023/02/03 07:24:21;;;;;;;13.07;2.95;;;8.90;99.90;;;;;;4884523;29;20048;-73
2023/02/03 07:26:47;;;;;;;10.77;2.30;;;8.90;99.90;;;;;;4898849;29;20043;-73
2023/02/03 07:29:13;;;;;;;12.48;2.88;;;8.90;99.90;;;;;;4901385;29;20039;-73
2023/02/03 07:31:40;;;;;;;11.90;2.85;;;8.90;99.90;;;;;;4908003;29;20040;-74
2023/02/03 07:34:07;;;;;;;12.32;3.15;;;8.90;99.90;;;;;;4898498;29;20048;-74
2023/02/03 07:36:33;;;;;;;11.93;2.33;;;8.90;99.90;;;;;;4878654;29;20090;-75
2023/02/03 07:38:59;;;;;;;14.85;3.78;;;8.90;99.90;;;;;;4918217;29;20492;-73
2023/02/03 07:41:25;;;;;;;17.17;3.17;;;8.90;99.90;;;;;;4899681;29;20059;-74
2023/02/03 07:43:52;;;;;;;15.45;2.78;;;8.90;99.90;;;;;;4913942;29;20036;-75
2023/02/03 07:46:18;;;;;;;12.07;2.97;;;8.90;99.90;;;;;;4910438;29;20040;-75
2023/02/03 07:48:44;;;;;;;15.00;3.13;;;8.90;99.90;;;;;;4910423;29;20758;-74
2023/02/03 07:51:11;;;;;;;11.20;2.75;;;8.90;99.90;;;;;;4920788;29;20396;-72
2023/02/03 07:53:37;;;;;;;17.75;3.10;;;8.90;99.90;;;;;;4900453;29;20511;-76
2023/02/03 07:56:04;;;;;;;13.02;2.88;;;8.90;99.90;;;;;;4891405;29;20393;-75
2023/02/03 07:58:31;;;;;;;17.73;3.08;;;8.90;99.90;;;;;;4917773;29;20035;-73
2023/02/03 08:00:58;;;;;;;13.65;2.45;;;9.00;99.90;;;;;;4899435;29;20052;-73
2023/02/03 08:03:24;;;;;;;16.52;3.90;;;9.00;99.90;;;;;;4900002;29;20028;-74
2023/02/03 08:05:52;;;;;;;12.45;2.40;;;9.00;99.90;;;;;;4878768;29;20032;-76
2023/02/03 08:08:18;;;;;;;15.70;2.55;;;9.00;99.90;;;;;;4884261;29;20035;-73
2023/02/03 08:10:44;;;;;;;10.80;2.85;;;9.00;99.90;;;;;;4923409;29;20052;-73
2023/02/03 08:13:11;;;;;;;13.15;2.88;;;9.10;99.90;;;;;;4888770;29;20032;-73
2023/02/03 08:15:37;;;;;;;12.38;2.35;;;9.00;99.90;;;;;;4874268;29;20055;-74
2023/02/03 08:18:03;;;;;;;14.60;3.65;;;9.10;99.90;;;;;;4883898;29;20047;-74
2023/02/03 08:20:30;;;;;;;16.25;3.00;;;9.10;99.90;;;;;;4915359;29;20043;-73
2023/02/03 08:22:56;;;;;;;9.65;2.83;;;9.10;99.90;;;;;;4902541;29;20040;-74
2023/02/03 08:25:22;;;;;;;11.23;2.70;;;9.10;99.90;;;;;;4894014;29;20035;-73
2023/02/03 08:27:48;;;;;;;10.15;3.13;;;9.10;99.90;;;;;;4884250;29;20032;-75
2023/02/03 08:30:15;;;;;;;12.38;2.90;;;9.10;99.90;;;;;;4905424;29;20039;-73
2023/02/03 08:32:41;;;;;;;12.80;2.47;;;9.20;99.90;;;;;;4915160;29;20043;-74
2023/02/03 08:35:07;;;;;;;12.13;2.65;;;9.20;99.90;;;;;;4873110;29;20472;-75
2023/02/03 08:37:34;;;;;;;17.35;3.55;;;9.20;99.90;;;;;;4914658;29;20056;-73
2023/02/03 08:40:00;;;;;;;9.80;1.98;;;9.20;99.90;;;;;;4880014;29;20035;-73
2023/02/03 08:42:27;;;;;;;9.85;2.40;;;9.20;99.90;;;;;;4905039;29;20044;-73
2023/02/03 08:44:53;;;;;;;11.68;2.78;;;9.30;99.90;;;;;;4907509;29;20051;-74
2023/02/03 08:47:19;;;;;;;13.25;3.00;;;9.30;99.90;;;;;;4900853;29;20047;-74
2023/02/03 08:49:46;;;;;;;10.73;2.35;;;9.30;99.90;;;;;;4899488;29;20028;-73
2023/02/03 08:52:13;;;;;;;13.90;2.60;;;9.30;99.90;;;;;;4917008;29;20040;-75
2023/02/03 08:54:39;;;;;;;14.02;2.72;;;9.40;99.90;;;;;;4892769;29;20044;-74
2023/02/03 08:57:06;;;;;;;15.48;2.45;;;9.40;99.90;;;;;;4899083;29;20051;-74
2023/02/03 08:59:36;;;;;;;8.68;2.28;;;9.40;99.90;;;;;;4916475;29;20031;-76
2023/02/03 09:02:03;;;;;;;16.67;2.97;;;9.40;99.90;;;;;;4922036;29;20054;-73
2023/02/03 09:04:32;;;;;;;9.05;2.42;;;9.50;99.90;;;;;;4889195;29;20028;-75
2023/02/03 09:06:59;;;;;;;12.88;2.00;;;9.50;99.90;;;;;;4886767;29;20054;-74
2023/02/03 09:09:27;;;;;;;12.00;2.42;;;9.50;99.90;;;;;;4900155;29;20055;-72
2023/02/03 09:12:01;;;;;;;9.40;2.60;;;9.60;99.90;;;;;;4916781;29;20043;-74
2023/02/03 09:14:28;;;;;;;11.25;2.60;;;9.60;99.90;;;;;;4909986;29;20142;-73
2023/02/03 09:16:54;;;;;;;9.93;2.90;;;9.60;99.90;;;;;;4898197;29;20044;-74
2023/02/03 09:19:21;;;;;;;12.40;2.85;;;9.60;99.90;;;;;;4880593;29;20051;-74
2023/02/03 09:21:48;;;;;;;10.88;2.45;;;9.60;99.90;;;;;;4913458;29;20032;-73
2023/02/03 09:24:15;;;;;;;11.52;2.00;;;9.70;99.90;;;;;;4909506;29;20040;-74
2023/02/03 09:26:42;;;;;;;14.05;2.75;;;9.70;99.90;;;;;;4891336;29;20048;-73
2023/02/03 09:29:09;;;;;;;13.75;3.25;;;9.80;99.90;;;;;;4914630;29;20047;-73
2023/02/03 09:31:35;;;;;;;9.88;2.00;;;9.80;99.90;;;;;;4916092;29;20032;-74
2023/02/03 09:34:02;;;;;;;11.73;2.92;;;9.80;99.90;;;;;;4886403;29;20519;-74
2023/02/03 09:36:28;;;;;;;11.75;2.28;;;9.90;99.90;;;;;;4915250;29;20703;-73
2023/02/03 09:38:56;;;;;;;13.18;2.83;;;9.90;99.90;;;;;;4921892;29;20043;-73
2023/02/03 09:41:34;;;;;;;18.13;2.72;;;9.90;99.90;;;;;;4897289;29;20040;-76
2023/02/03 09:44:19;;;;;;;15.68;3.97;;;10.00;99.90;;;;;;4914205;29;20044;-76
2023/02/03 09:46:49;;;;;;;13.85;3.58;;;10.00;99.90;;;;;;4900037;29;20043;-75
2023/02/03 09:49:41;;;;;;;10.25;2.50;;;10.00;99.90;;;;;;4905004;29;20047;-73
2023/02/03 09:52:14;;;;;;;10.80;3.17;;;10.00;99.90;;;;;;4913413;29;20039;-73
2023/02/03 09:54:57;;;;;;;10.40;3.40;;;10.10;99.90;;;;;;4892554;29;20049;-75
2023/02/03 09:57:25;;;;;;;;;;;10.10;99.90;;;;;;4882548;29;20044;-74
2023/02/03 09:59:54;;;;;;;11.70;2.92;;;10.20;99.90;;;;;;4908379;29;19921;-76
2023/02/03 10:02:40;;;;;;;12.02;2.42;;;10.20;99.90;;;;;;4878729;29;20037;-74
2023/02/03 10:05:41;;;;;;;11.77;2.72;;;10.20;99.90;;;;;;4875954;29;20040;-74
2023/02/03 10:08:26;;;;;;;7.60;1.73;;;10.20;99.90;;;;;;4904334;29;20040;-73
2023/02/03 10:11:09;;;;;;;9.40;2.53;;;10.30;99.90;;;;;;4890076;29;20039;-74
2023/02/03 10:14:10;;;;;;;7.50;2.22;;;10.30;99.90;;;;;;4911070;29;20028;-75
2023/02/03 10:16:51;;;;;;;9.63;2.10;;;10.30;99.90;;;;;;4909038;29;20055;-72
2023/02/03 10:19:25;;;;;;;11.32;2.42;;;10.30;99.90;;;;;;4898119;29;20486;-73
2023/02/03 10:21:56;;;;;;;11.90;3.47;;;10.40;99.90;;;;;;4917996;29;20032;-73
2023/02/03 10:24:41;;;;;;;13.45;3.15;;;10.40;99.90;;;;;;4909735;29;20419;-73
2023/02/03 10:27:16;;;;;;;9.25;2.10;;;10.40;99.90;;;;;;4878234;29;20039;-72
2023/02/03 10:29:43;;;;;;;8.95;2.05;;;10.40;99.90;;;;;;4893641;29;20040;-72
2023/02/03 10:32:11;;;;;;;9.68;2.05;;;10.40;99.90;;;;;;4907007;29;20047;-73
2023/02/03 10:34:38;;;;;;;9.60;2.10;;;10.50;99.90;;;;;;4890880;29;20040;-72
2023/02/03 10:37:25;;;;;;;11.43;2.25;;;10.50;99.90;;;;;;4894113;29;20056;-73
2023/02/03 10:39:53;;;;;;;9.18;1.95;;;10.50;99.90;;;;;;4882922;29;20051;-73
2023/02/03 10:42:21;;;;;;;12.20;2.05;;;10.50;99.90;;;;;;4915019;29;20032;-74
2023/02/03 10:44:56;;;;;;;9.73;2.03;;;10.50;99.90;;;;;;4907085;29;20047;-74
2023/02/03 10:47:28;;;;;;;11.02;2.00;;;10.50;99.90;;;;;;4898611;29;20536;-72
2023/02/03 10:49:57;;;;;;;8.32;2.00;;;10.50;99.90;;;;;;4897133;29;20036;-72
2023/02/03 10:52:32;;;;;;;11.95;2.35;;;10.50;99.90;;;;;;4896654;29;20051;-72
2023/02/03 10:55:08;;;;;;;5.35;1.52;;;10.50;99.90;;;;;;4906605;29;20419;-73
2023/02/03 10:57:38;;;;;;;9.30;2.15;;;10.50;99.90;;;;;;4911723;29;20377;-73
2023/02/03 11:00:26;;;;;;;9.15;2.10;;;10.50;99.90;;;;;;4895657;29;20051;-74
2023/02/03 11:03:20;;;;;;;8.48;2.08;;;10.50;99.90;;;;;;4910461;29;20047;-71
2023/02/03 11:05:46;;;;;;;8.88;1.50;;;10.60;99.90;;;;;;4901219;29;20515;-72
2023/02/03 11:08:15;;;;;;;10.07;1.58;;;10.50;99.90;;;;;;4919130;29;20055;-72
2023/02/03 11:10:42;;;;;;;14.52;2.80;;;10.60;99.90;;;;;;4910500;29;20032;-73
2023/02/03 11:13:19;;;;;;;11.18;2.33;;;10.60;99.90;;;;;;4893954;29;20075;-71
2023/02/03 11:16:01;;;;;;;8.20;1.73;;;10.60;99.90;;;;;;4869712;29;20499;-72
2023/02/03 11:18:52;;;;;;;11.03;2.20;;;10.70;99.90;;;;;;4907980;29;20032;-72
2023/02/03 11:21:40;;;;;;;12.15;1.85;;;10.60;99.90;;;;;;4907460;29;20040;-72
2023/02/03 11:24:19;;;;;;;8.85;1.83;;;10.60;99.90;;;;;;4891261;29;20447;-71
2023/02/03 11:26:50;;;;;;;8.93;1.65;;;10.70;99.90;;;;;;4905958;29;20028;-71
2023/02/03 11:29:22;;;;;;;5.88;1.50;;;10.70;99.90;;;;;;4897156;29;20031;-72
2023/02/03 11:31:51;;;;;;;10.75;2.42;;;10.70;99.90;;;;;;4894585;29;20506;-73
2023/02/03 11:34:24;;;;;;;6.43;1.60;;;10.80;99.90;;;;;;4904606;29;20032;-70
2023/02/03 11:36:51;;;;;;;8.05;1.48;;;10.80;99.90;;;;;;4878565;29;20067;-70
2023/02/03 11:39:34;;;;;;;9.43;1.40;;;10.80;99.90;;;;;;4903453;29;20047;-71
2023/02/03 11:42:01;;;;;;;;;;;10.90;99.90;;;;;;4902005;29;20499;-70
2023/02/03 11:44:30;;;;;;;11.48;1.77;;;10.90;99.90;;;;;;4912959;29;19915;-72
2023/02/03 11:47:06;;;;;;;9.25;1.80;;;10.90;99.90;;;;;;4888856;29;20062;-71
2023/02/03 11:49:55;;;;;;;10.75;1.95;;;11.00;99.90;;;;;;4893921;29;21093;-72
2023/02/03 11:52:27;;;;;;;9.10;1.45;;;11.00;99.90;;;;;;4880244;29;20853;-71
2023/02/03 11:55:20;;;;;;;10.60;1.80;;;11.00;99.90;;;;;;4903357;29;21695;-72
2023/02/03 11:58:11;;;;;;;11.43;1.77;;;11.00;99.90;;;;;;4909092;29;20032;-71
2023/02/03 12:00:57;;;;;;;12.40;1.70;;;11.00;99.90;;;;;;4886973;29;20043;-72
2023/02/03 12:03:45;;;;;;;7.68;1.40;;;11.00;99.90;;;;;;4917297;29;20043;-71
2023/02/03 12:06:28;;;;;;;9.40;1.75;;;11.00;99.90;;;;;;4898195;29;20076;-71
2023/02/03 12:09:20;;;;;;;9.10;1.63;;;11.00;99.90;;;;;;4919434;29;20040;-72
2023/02/03 12:12:14;;;;;;;10.75;1.73;;;10.90;99.90;;;;;;4905106;29;20427;-71
2023/02/03 12:14:56;;;;;;;11.30;2.20;;;10.90;99.90;;;;;;4907442;29;20055;-72
2023/02/03 12:17:39;;;;;;;8.77;1.40;;;10.90;99.90;;;;;;4899966;29;20052;-71
2023/02/03 12:20:29;;;;;;;10.50;1.30;;;10.90;99.90;;;;;;4919338;29;20044;-71
2023/02/03 12:23:10;;;;;;;11.15;2.03;;;10.90;99.90;;;;;;4880859;29;20067;-71
2023/02/03 12:26:15;;;;;;;9.70;2.08;;;10.90;99.90;;;;;;4886946;29;20042;-71
2023/02/03 12:28:57;;;;;;;11.48;2.30;;;10.90;99.90;;;;;;4893153;29;20051;-71
2023/02/03 12:31:53;;;;;;;8.98;1.38;;;10.90;99.90;;;;;;4901071;29;20481;-70
2023/02/03 12:34:43;;;;;;;11.30;2.30;;;10.80;99.90;;;;;;4897013;29;20048;-70
2023/02/03 12:37:18;;;;;;;10.80;2.03;;;10.70;99.90;;;;;;4909521;29;20052;-69
2023/02/03 12:39:52;;;;;;;10.77;1.90;;;10.60;99.90;;;;;;4900403;29;20036;-70
2023/02/03 12:42:29;;;;;;;9.90;1.73;;;10.50;99.90;;;;;;4918536;29;20031;-70
2023/02/03 12:45:10;;;;;;;7.82;2.17;;;10.40;99.90;;;;;;4905396;29;20043;-69
2023/02/03 12:48:01;;;;;;;12.63;2.80;;;10.30;99.90;;;;;;4903124;29;20044;-71
2023/02/03 12:50:50;;;;;;;12.30;1.95;;;10.10;99.90;;;;;;4901742;29;20055;-72
2023/02/03 12:53:29;;;;;;;14.77;2.50;;;10.00;99.90;;;;;;4916386;29;20046;-71
2023/02/03 12:56:00;;;;;;;13.93;2.63;;;9.80;99.90;;;;;;4908922;29;20387;-72
2023/02/03 12:59:10;;;;;;;11.52;2.85;;;9.70;99.90;;;;;;4919968;29;20046;-72
2023/02/03 13:02:12;;;;;;;12.10;2.42;;;9.50;99.90;;;;;;4881331;29;20060;-71
2023/02/03 13:04:52;;;;;;;12.00;2.47;;;9.40;99.90;;;;;;4908322;29;20032;-73
2023/02/03 13:07:34;;;;;;;20.13;2.50;;;9.40;99.90;;;;;;4887352;29;20043;-72
2023/02/03 13:10:42;;;;;;;12.88;3.10;;;9.40;99.90;;;;;;4897817;29;20036;-72
2023/02/03 13:13:13;;;;;;;10.13;2.15;;;9.40;99.90;;;;;;4871844;29;20428;-72